ジャカルタ の空港の天気 - METARとTAF

スカルノハッタ国際空港 ( WIII / CGK ) - インドネシア バンテン州、Cengkareng ( ジャカルタ近郊)
飛行場実況気象(Metar)
観測時間11/16 00:00 WIB (11/15 17:00 UTC)
風向・風速西 4m/s
視程6000m
天気現象
全天の4割程度の雲 雲底高度 610m
気温28℃
湿度70%
気圧1011hPa
METARWIII 151700Z 26007KT 6000 SCT020 28/22 Q1011 NOSIG
過去の天気等 Google飛行場航空写真 Wunderground天気予報

過去48時間のMETAR

飛行場予報(TAF)
発表時間: 11/15 18:00 WIB (11/15 11:00 UTC)
予報対象時間: 15日19時 WIB ~ 17日1時 WIB
風向・風速西南西 5m/s
視程7000m
全天の4割程度の雲 雲底高度 610m
15日22時 WIB ~ 16日1時 WIB に一時的に
風向・風速南南東 5m/s
視程4000m
天気現象雷雨
少しの積乱雲 雲底高度 580m
全天の8割程度の雲 雲底高度 610m
16日1時 WIB ~ 16日3時 WIB に徐々に
風向・風速西南西 3m/s
視程4000m
天気現象もや
全天の4割程度の雲 雲底高度 610m
16日9時 WIB ~ 16日11時 WIB に徐々に
風向・風速北 3m/s
視程8000m
天気現象運行に影響にある天気現象が終了
TAF WIII 151100Z 1512/1618 25010KT 7000 SCT020
TEMPO 1515/1518 15010KT 4000 TSRA FEW019CB BKN020
BECMG 1518/1520 24005KT 4000 BR SCT020
BECMG 1602/1604 35006KT 8000 NSW